createdAt,value
2019-02-21T00:00:58.188Z,20.52
2019-02-21T00:03:26.475Z,19.80
2019-02-21T00:05:54.777Z,19.92
2019-02-21T00:08:23.854Z,19.23
2019-02-21T00:10:52.155Z,19.30
2019-02-21T00:13:20.447Z,19.37
2019-02-21T00:15:48.782Z,19.10
2019-02-21T00:18:17.071Z,19.42
2019-02-21T00:20:45.339Z,20.03
2019-02-21T00:23:15.107Z,19.83
2019-02-21T00:25:43.524Z,19.55
2019-02-21T00:28:11.881Z,19.92
2019-02-21T00:30:40.908Z,19.52
2019-02-21T00:33:10.060Z,19.70
2019-02-21T00:35:38.440Z,19.27
2019-02-21T00:38:06.829Z,20.05
2019-02-21T00:40:35.254Z,20.23
2019-02-21T00:43:03.491Z,20.20
2019-02-21T00:45:31.849Z,19.25
2019-02-21T00:48:00.139Z,19.58
2019-02-21T00:50:28.419Z,19.73
2019-02-21T00:52:56.817Z,19.65
2019-02-21T00:55:27.898Z,19.92
2019-02-21T00:57:54.263Z,19.70
2019-02-21T01:00:22.632Z,20.20
2019-02-21T01:02:51.277Z,20.45
2019-02-21T01:05:20.422Z,20.02
2019-02-21T01:07:48.803Z,20.37
2019-02-21T01:10:17.856Z,20.73
2019-02-21T01:12:46.186Z,20.30
2019-02-21T01:15:15.246Z,21.15
2019-02-21T01:17:43.571Z,20.33
2019-02-21T01:20:12.659Z,19.20
2019-02-21T01:22:41.001Z,20.90
2019-02-21T01:25:09.277Z,20.53
2019-02-21T01:27:37.629Z,20.30
2019-02-21T01:30:05.938Z,21.62
2019-02-21T01:32:35.027Z,20.83
2019-02-21T01:35:03.406Z,21.05
2019-02-21T01:37:31.787Z,22.20
2019-02-21T01:40:00.230Z,21.52
2019-02-21T01:42:28.430Z,21.17
2019-02-21T01:44:56.822Z,22.20
2019-02-21T01:47:25.145Z,21.98
2019-02-21T01:49:53.451Z,21.45
2019-02-21T01:52:21.865Z,21.95
2019-02-21T01:54:50.919Z,22.13
2019-02-21T01:57:19.249Z,22.23
2019-02-21T01:59:48.427Z,21.83
2019-02-21T02:02:16.746Z,22.25
2019-02-21T02:04:45.099Z,22.33
2019-02-21T02:07:13.498Z,22.73
2019-02-21T02:09:41.823Z,22.48
2019-02-21T02:12:10.179Z,23.02
2019-02-21T02:14:38.479Z,22.85
2019-02-21T02:17:06.856Z,22.25
2019-02-21T02:19:35.146Z,23.05
2019-02-21T02:22:04.326Z,22.60
2019-02-21T02:24:32.697Z,22.97
2019-02-21T02:27:01.131Z,22.60
2019-02-21T02:29:29.386Z,22.48
2019-02-21T02:31:58.583Z,22.25
2019-02-21T02:34:26.921Z,23.17
2019-02-21T02:36:55.194Z,23.27
2019-02-21T02:39:23.493Z,23.10
2019-02-21T02:41:51.839Z,23.90
2019-02-21T02:44:20.119Z,23.03
2019-02-21T02:46:48.400Z,22.92
2019-02-21T02:49:16.798Z,23.70
2019-02-21T02:51:45.038Z,23.65
2019-02-21T02:54:13.333Z,23.73
2019-02-21T02:56:41.697Z,24.25
2019-02-21T02:59:10.081Z,22.77
2019-02-21T03:01:38.357Z,23.00
2019-02-21T03:04:06.775Z,23.08
2019-02-21T03:06:35.030Z,23.57
2019-02-21T03:09:03.297Z,22.23
2019-02-21T03:11:31.557Z,22.95
2019-02-21T03:13:59.846Z,22.67
2019-02-21T03:16:28.152Z,23.20
2019-02-21T03:18:56.546Z,22.83
2019-02-21T03:21:24.831Z,22.20
2019-02-21T03:23:53.147Z,21.85
2019-02-21T03:26:21.433Z,22.83
2019-02-21T03:28:49.731Z,22.80
2019-02-21T03:31:18.859Z,22.05
2019-02-21T03:33:47.156Z,22.33
2019-02-21T03:36:15.573Z,22.87
2019-02-21T03:38:43.890Z,21.90
2019-02-21T03:41:12.170Z,22.13
2019-02-21T03:43:40.573Z,22.58
2019-02-21T03:46:08.981Z,22.10
2019-02-21T03:48:37.269Z,21.58
2019-02-21T03:51:06.316Z,21.50
2019-02-21T03:53:34.692Z,21.85
2019-02-21T03:56:03.109Z,22.25
2019-02-21T03:58:31.447Z,21.77
2019-02-21T04:00:59.934Z,21.65
2019-02-21T04:03:28.418Z,21.87
2019-02-21T04:05:56.757Z,21.77
2019-02-21T04:08:25.093Z,21.10
2019-02-21T04:10:53.410Z,21.30
2019-02-21T04:13:21.708Z,21.77
2019-02-21T04:15:50.039Z,20.73
2019-02-21T04:18:19.090Z,22.05
2019-02-21T04:20:47.370Z,21.17
2019-02-21T04:23:15.705Z,20.92
2019-02-21T04:25:44.011Z,20.70
2019-02-21T04:28:12.340Z,20.80
2019-02-21T04:30:41.510Z,20.77
2019-02-21T04:33:09.841Z,20.52
2019-02-21T04:35:38.177Z,20.62
2019-02-21T04:38:07.798Z,22.05
2019-02-21T04:40:36.112Z,21.50
2019-02-21T04:43:04.383Z,22.20
2019-02-21T04:45:32.668Z,22.80
2019-02-21T04:48:00.989Z,25.03
2019-02-21T04:50:29.265Z,24.37
2019-02-21T04:52:57.554Z,23.87
2019-02-21T04:55:27.409Z,22.80
2019-02-21T04:57:55.726Z,22.20
2019-02-21T05:00:24.889Z,20.73
2019-02-21T05:02:53.158Z,21.70
2019-02-21T05:05:21.493Z,21.58
2019-02-21T05:07:49.771Z,21.65
2019-02-21T05:10:18.097Z,22.33
2019-02-21T05:12:46.407Z,22.17
2019-02-21T05:15:15.469Z,21.98
2019-02-21T05:17:45.276Z,22.02
2019-02-21T05:20:13.570Z,21.23
2019-02-21T05:22:41.853Z,22.42
2019-02-21T05:25:11.014Z,22.92
2019-02-21T05:27:39.290Z,21.90
2019-02-21T05:30:07.618Z,22.23
2019-02-21T05:32:41.072Z,22.02
2019-02-21T05:35:08.975Z,23.00
2019-02-21T05:37:52.943Z,22.37
2019-02-21T05:40:28.635Z,23.20
2019-02-21T05:42:58.572Z,24.00
2019-02-21T05:45:28.131Z,23.20
2019-02-21T05:48:02.095Z,22.95
2019-02-21T05:50:32.939Z,23.73
2019-02-21T05:53:02.872Z,23.58
2019-02-21T05:55:32.624Z,23.10
2019-02-21T05:58:04.354Z,22.85
2019-02-21T06:00:36.949Z,23.12
2019-02-21T06:03:06.418Z,22.73
2019-02-21T06:05:37.319Z,21.58
2019-02-21T06:08:07.016Z,22.50
2019-02-21T06:10:38.083Z,21.55
2019-02-21T06:13:21.343Z,21.17
2019-02-21T06:15:54.854Z,20.35
2019-02-21T06:18:24.940Z,21.02
2019-02-21T06:20:57.789Z,22.75
2019-02-21T06:23:26.134Z,21.50
2019-02-21T06:25:58.246Z,21.55
2019-02-21T06:28:24.079Z,21.25
2019-02-21T06:30:52.391Z,21.20
2019-02-21T06:33:20.671Z,21.17
2019-02-21T06:35:48.985Z,20.42
2019-02-21T06:38:18.036Z,20.67
2019-02-21T06:40:47.038Z,20.05
2019-02-21T06:43:14.697Z,20.65
2019-02-21T06:45:42.991Z,20.50
2019-02-21T06:48:11.380Z,19.92
2019-02-21T06:50:39.669Z,20.70
2019-02-21T06:53:08.723Z,20.30
2019-02-21T06:55:37.019Z,21.00
2019-02-21T06:58:06.080Z,21.35
2019-02-21T07:00:34.471Z,21.60
2019-02-21T07:03:02.939Z,21.70
2019-02-21T07:05:31.224Z,22.25
2019-02-21T07:07:59.520Z,22.40
2019-02-21T07:10:27.802Z,22.13
2019-02-21T07:12:57.010Z,23.58
2019-02-21T07:15:26.053Z,22.50
2019-02-21T07:17:54.489Z,22.98
2019-02-21T07:20:22.755Z,21.87
2019-02-21T07:22:51.815Z,21.65
2019-02-21T07:25:23.555Z,21.80
2019-02-21T07:27:51.942Z,21.35
2019-02-21T07:30:23.062Z,22.42
2019-02-21T07:32:48.522Z,20.42
2019-02-21T07:35:17.596Z,20.73
2019-02-21T07:37:45.948Z,20.35
2019-02-21T07:40:20.062Z,20.62
2019-02-21T07:42:43.248Z,19.62
2019-02-21T07:45:13.457Z,19.58
2019-02-21T07:47:41.621Z,20.20
2019-02-21T07:50:10.008Z,19.62
2019-02-21T07:52:38.262Z,19.97
2019-02-21T07:55:06.529Z,19.65
2019-02-21T07:57:34.853Z,19.58
2019-02-21T08:00:04.648Z,19.33
2019-02-21T08:02:33.061Z,19.20
2019-02-21T08:05:02.477Z,20.17
2019-02-21T08:07:31.318Z,19.58
2019-02-21T08:09:59.615Z,20.00
2019-02-21T08:12:28.680Z,19.08
2019-02-21T08:14:57.023Z,19.52
2019-02-21T08:17:27.751Z,19.20
2019-02-21T08:19:53.617Z,18.70
2019-02-21T08:22:21.946Z,19.62
2019-02-21T08:24:50.250Z,19.30
2019-02-21T08:27:18.627Z,18.42
2019-02-21T08:29:46.931Z,18.48
2019-02-21T08:32:15.203Z,18.58
2019-02-21T08:34:43.499Z,18.58
2019-02-21T08:37:12.706Z,19.20
2019-02-21T08:39:41.234Z,19.20
2019-02-21T08:42:09.527Z,19.10
2019-02-21T08:44:37.900Z,21.42
2019-02-21T08:47:06.196Z,21.73
2019-02-21T08:49:34.535Z,20.85
2019-02-21T08:52:02.850Z,24.20
2019-02-21T08:54:31.191Z,24.80
2019-02-21T08:56:59.447Z,21.23
2019-02-21T08:59:27.778Z,22.77
2019-02-21T09:01:56.131Z,21.42
2019-02-21T09:04:27.707Z,20.50
2019-02-21T09:06:52.744Z,21.40
2019-02-21T09:09:21.093Z,21.33
2019-02-21T09:11:50.158Z,21.52
2019-02-21T09:14:18.573Z,21.67
2019-02-21T09:16:46.841Z,20.60
2019-02-21T09:19:16.000Z,21.30
2019-02-21T09:21:44.292Z,21.42
2019-02-21T09:24:13.834Z,21.00
2019-02-21T09:26:41.715Z,21.10
2019-02-21T09:29:10.041Z,21.23
2019-02-21T09:31:38.383Z,21.50
2019-02-21T09:34:06.637Z,20.97
2019-02-21T09:36:34.939Z,21.27
2019-02-21T09:39:03.240Z,20.27
2019-02-21T09:41:31.537Z,19.83
2019-02-21T09:44:00.605Z,18.95
2019-02-21T09:46:28.892Z,19.30
2019-02-21T09:48:57.967Z,19.12
2019-02-21T09:51:26.332Z,17.80
2019-02-21T09:53:54.718Z,18.20
2019-02-21T09:56:30.294Z,18.65
2019-02-21T09:58:51.379Z,17.43
2019-02-21T10:01:19.755Z,18.85
2019-02-21T10:03:48.053Z,18.95
2019-02-21T10:06:16.442Z,18.23
2019-02-21T10:08:45.510Z,18.77
2019-02-21T10:11:14.113Z,19.45
2019-02-21T10:13:42.459Z,18.67
2019-02-21T10:16:10.855Z,19.10
2019-02-21T10:18:39.249Z,20.77
2019-02-21T10:21:08.551Z,19.83
2019-02-21T10:23:37.610Z,18.52
2019-02-21T10:26:05.934Z,17.20
2019-02-21T10:28:35.079Z,18.45
2019-02-21T10:31:03.462Z,17.08
2019-02-21T10:33:32.294Z,17.30
2019-02-21T10:36:01.406Z,16.37
2019-02-21T10:38:30.114Z,17.65
2019-02-21T10:40:58.389Z,16.23
2019-02-21T10:43:26.683Z,16.10
2019-02-21T10:45:54.968Z,16.40
2019-02-21T10:48:24.803Z,15.48
2019-02-21T10:50:53.867Z,14.95
2019-02-21T10:53:22.268Z,13.82
2019-02-21T10:55:51.343Z,10.88
2019-02-21T10:58:19.765Z,11.52
2019-02-21T11:00:48.100Z,9.73
2019-02-21T11:03:16.386Z,10.65
2019-02-21T11:05:44.729Z,9.02
2019-02-21T11:08:12.999Z,8.93
2019-02-21T11:10:41.359Z,8.40
2019-02-21T11:13:09.701Z,8.47
2019-02-21T11:15:37.988Z,8.82
2019-02-21T11:18:07.178Z,9.52
2019-02-21T11:20:35.475Z,9.52
2019-02-21T11:23:06.303Z,9.82
2019-02-21T11:25:32.161Z,10.23
2019-02-21T11:28:00.453Z,10.10
2019-02-21T11:30:28.844Z,10.40
2019-02-21T11:32:57.199Z,8.88
2019-02-21T11:35:25.501Z,8.98
2019-02-21T11:37:55.044Z,8.80
2019-02-21T11:40:23.368Z,8.63
2019-02-21T11:42:51.815Z,9.50
2019-02-21T11:45:20.117Z,9.57
2019-02-21T11:47:48.806Z,9.50
2019-02-21T11:50:17.192Z,10.00
2019-02-21T11:52:45.484Z,10.30
2019-02-21T11:55:19.983Z,10.88
2019-02-21T11:57:48.290Z,11.20
2019-02-21T12:00:17.347Z,11.40
2019-02-21T12:02:45.737Z,12.63
2019-02-21T12:05:17.466Z,12.45
2019-02-21T12:07:42.328Z,12.57
2019-02-21T12:10:10.697Z,12.25
2019-02-21T12:12:40.571Z,13.00
2019-02-21T12:15:11.723Z,12.55
2019-02-21T12:17:42.442Z,14.43
2019-02-21T12:20:11.599Z,14.57
2019-02-21T12:22:39.919Z,14.87
2019-02-21T12:25:08.915Z,14.27
2019-02-21T12:27:37.206Z,14.80
2019-02-21T12:30:06.248Z,14.45
2019-02-21T12:32:34.610Z,16.02
2019-02-21T12:35:02.909Z,14.40
2019-02-21T12:37:31.218Z,14.17
2019-02-21T12:39:59.734Z,14.02
2019-02-21T12:42:27.985Z,13.93
2019-02-21T12:44:56.280Z,13.18
2019-02-21T12:47:25.427Z,13.90
2019-02-21T12:49:55.426Z,13.40
2019-02-21T12:52:22.026Z,12.95
2019-02-21T12:54:51.880Z,12.98
2019-02-21T12:57:19.463Z,13.27
2019-02-21T12:59:49.267Z,12.93
2019-02-21T13:02:17.538Z,13.27
2019-02-21T13:04:45.879Z,13.35
2019-02-21T13:07:14.192Z,13.93
2019-02-21T13:09:42.488Z,13.27
2019-02-21T13:12:10.865Z,13.75
2019-02-21T13:14:39.222Z,11.80
2019-02-21T13:17:07.567Z,11.40
2019-02-21T13:19:36.011Z,11.45
2019-02-21T13:22:05.121Z,10.73
2019-02-21T13:24:33.643Z,10.70
2019-02-21T13:27:01.928Z,9.47
2019-02-21T13:29:30.387Z,9.43
2019-02-21T13:31:58.683Z,9.48
2019-02-21T13:34:27.031Z,9.05
2019-02-21T13:36:55.398Z,8.80
2019-02-21T13:39:24.261Z,9.05
2019-02-21T13:41:52.587Z,8.43
2019-02-21T13:44:20.929Z,7.90
2019-02-21T13:46:49.192Z,7.73
2019-02-21T13:49:19.159Z,7.90
2019-02-21T13:51:47.548Z,8.68
2019-02-21T13:54:15.911Z,8.20
2019-02-21T13:56:44.923Z,8.45
2019-02-21T13:59:13.257Z,8.18
2019-02-21T14:01:41.545Z,7.68
2019-02-21T14:04:09.948Z,7.15
2019-02-21T14:06:38.335Z,7.68
2019-02-21T14:09:06.665Z,8.10
2019-02-21T14:11:34.955Z,7.87
2019-02-21T14:14:03.297Z,7.70
2019-02-21T14:16:31.619Z,7.62
2019-02-21T14:18:59.911Z,7.28
2019-02-21T14:21:28.203Z,6.85
2019-02-21T14:23:56.534Z,6.87
2019-02-21T14:26:24.853Z,6.87
2019-02-21T14:28:55.298Z,6.75
2019-02-21T14:31:24.385Z,6.60
2019-02-21T14:33:52.674Z,6.60
2019-02-21T14:36:20.927Z,6.50
2019-02-21T14:38:49.321Z,6.90
2019-02-21T14:41:17.677Z,6.30
2019-02-21T14:43:46.047Z,6.28
2019-02-21T14:46:14.383Z,6.53
2019-02-21T14:48:42.660Z,7.47
2019-02-21T14:51:10.980Z,7.30
2019-02-21T14:53:39.299Z,7.45
2019-02-21T14:56:07.613Z,9.88
2019-02-21T14:58:35.890Z,6.83
2019-02-21T15:01:04.187Z,6.78
2019-02-21T15:03:32.904Z,7.10
2019-02-21T15:06:01.282Z,7.45
2019-02-21T15:08:29.571Z,7.68
2019-02-21T15:10:57.930Z,7.00
2019-02-21T15:13:27.126Z,7.05
2019-02-21T15:15:56.191Z,6.47
2019-02-21T15:18:24.479Z,6.57
2019-02-21T15:20:52.769Z,6.15
2019-02-21T15:23:21.812Z,6.65
2019-02-21T15:25:50.202Z,8.40
2019-02-21T15:28:18.572Z,7.87
2019-02-21T15:30:46.898Z,6.82
2019-02-21T15:33:16.047Z,8.20
2019-02-21T15:35:44.463Z,6.90
2019-02-21T15:38:20.031Z,6.87
2019-02-21T15:40:43.344Z,6.50
2019-02-21T15:43:09.590Z,7.00
2019-02-21T15:45:37.848Z,6.20
2019-02-21T15:48:06.212Z,6.28
2019-02-21T15:50:34.597Z,6.90
2019-02-21T15:53:02.930Z,6.78
2019-02-21T15:55:32.310Z,6.03
2019-02-21T15:58:03.916Z,6.78
2019-02-21T16:00:28.643Z,7.12
2019-02-21T16:02:57.010Z,6.87
2019-02-21T16:05:25.320Z,7.65
2019-02-21T16:07:53.582Z,7.70
2019-02-21T16:10:23.570Z,7.18
2019-02-21T16:12:52.160Z,7.75
2019-02-21T16:15:20.140Z,7.97
2019-02-21T16:17:49.234Z,7.82
2019-02-21T16:20:18.304Z,8.25
2019-02-21T16:22:46.710Z,8.77
2019-02-21T16:25:21.714Z,8.73
2019-02-21T16:27:50.013Z,9.02
2019-02-21T16:30:18.304Z,9.50
2019-02-21T16:32:47.396Z,9.48
2019-02-21T16:35:16.493Z,9.43
2019-02-21T16:37:44.789Z,9.60
2019-02-21T16:40:15.976Z,10.60
2019-02-21T16:42:44.275Z,11.93
2019-02-21T16:45:14.270Z,11.95
2019-02-21T16:47:42.747Z,11.98
2019-02-21T16:50:12.574Z,11.93
2019-02-21T16:52:40.940Z,12.68
2019-02-21T16:55:12.051Z,13.03
2019-02-21T16:57:40.356Z,12.82
2019-02-21T17:00:09.373Z,12.20
2019-02-21T17:02:37.647Z,12.30
2019-02-21T17:05:05.971Z,13.00
2019-02-21T17:07:34.303Z,12.25
2019-02-21T17:10:04.138Z,11.75
2019-02-21T17:12:31.779Z,12.23
2019-02-21T17:15:00.052Z,12.33
2019-02-21T17:17:28.335Z,12.18
2019-02-21T17:19:57.398Z,11.45
2019-02-21T17:22:25.714Z,11.85
2019-02-21T17:24:54.859Z,14.43
2019-02-21T17:27:23.265Z,11.93
2019-02-21T17:29:51.581Z,12.55
2019-02-21T17:32:20.005Z,12.63
2019-02-21T17:34:48.282Z,13.93
2019-02-21T17:37:24.593Z,14.48
2019-02-21T17:39:44.949Z,16.02
2019-02-21T17:42:14.123Z,15.10
2019-02-21T17:44:42.501Z,15.65
2019-02-21T17:47:10.915Z,14.10
2019-02-21T17:49:40.080Z,15.02
2019-02-21T17:52:08.412Z,15.25
2019-02-21T17:54:36.764Z,15.65
2019-02-21T17:57:05.889Z,15.23
2019-02-21T17:59:34.186Z,15.23
2019-02-21T18:02:03.954Z,15.70
2019-02-21T18:04:32.268Z,15.07
2019-02-21T18:07:00.652Z,15.20
2019-02-21T18:09:29.036Z,14.45
2019-02-21T18:11:57.323Z,14.80
2019-02-21T18:14:25.684Z,15.02
2019-02-21T18:16:53.971Z,15.63
2019-02-21T18:19:22.350Z,15.60
2019-02-21T18:21:50.611Z,14.85
2019-02-21T18:24:18.996Z,15.48
2019-02-21T18:26:47.316Z,15.25
2019-02-21T18:29:16.395Z,15.38
2019-02-21T18:31:45.465Z,15.43
2019-02-21T18:34:13.751Z,15.80
2019-02-21T18:36:42.110Z,15.43
2019-02-21T18:39:10.491Z,15.65
2019-02-21T18:41:39.208Z,15.30
2019-02-21T18:44:07.480Z,15.30
2019-02-21T18:46:36.529Z,15.18
2019-02-21T18:49:04.822Z,15.10
2019-02-21T18:51:33.195Z,16.08
2019-02-21T18:54:02.038Z,17.02
2019-02-21T18:56:31.082Z,16.40
2019-02-21T18:58:59.377Z,16.62
2019-02-21T19:01:27.730Z,17.42
2019-02-21T19:03:56.211Z,20.08
2019-02-21T19:06:24.578Z,19.45
2019-02-21T19:08:52.895Z,19.33
2019-02-21T19:11:21.189Z,18.80
2019-02-21T19:13:50.347Z,19.85
2019-02-21T19:16:18.639Z,20.52
2019-02-21T19:18:47.853Z,20.50
2019-02-21T19:21:16.148Z,19.83
2019-02-21T19:23:44.819Z,19.27
2019-02-21T19:26:13.205Z,18.10
2019-02-21T19:28:41.552Z,17.50
2019-02-21T19:31:10.663Z,16.15
2019-02-21T19:33:38.984Z,15.88
2019-02-21T19:36:07.267Z,16.62
2019-02-21T19:38:35.696Z,18.02
2019-02-21T19:41:04.747Z,16.35
2019-02-21T19:43:33.149Z,15.52
2019-02-21T19:46:02.834Z,18.87
2019-02-21T19:48:31.104Z,18.40
2019-02-21T19:50:59.497Z,25.92
2019-02-21T19:53:27.844Z,17.52
2019-02-21T19:55:56.179Z,16.05
2019-02-21T19:58:25.265Z,17.12
2019-02-21T20:00:54.332Z,16.80
2019-02-21T20:03:22.715Z,17.40
2019-02-21T20:05:51.087Z,17.80
2019-02-21T20:08:21.695Z,16.65
2019-02-21T20:10:47.723Z,15.45
2019-02-21T20:13:16.142Z,14.63
2019-02-21T20:15:44.494Z,15.32
2019-02-21T20:18:12.816Z,14.70
2019-02-21T20:20:41.164Z,14.98
2019-02-21T20:23:09.520Z,14.67
2019-02-21T20:25:37.795Z,14.90
2019-02-21T20:28:06.122Z,15.15
2019-02-21T20:30:34.440Z,14.93
2019-02-21T20:33:02.872Z,15.00
2019-02-21T20:35:31.931Z,15.32
2019-02-21T20:38:00.298Z,15.82
2019-02-21T20:40:29.151Z,15.38
2019-02-21T20:42:58.413Z,16.00
2019-02-21T20:45:26.727Z,16.05
2019-02-21T20:47:55.059Z,16.58
2019-02-21T20:50:23.429Z,15.88
2019-02-21T20:52:51.739Z,16.20
2019-02-21T20:55:20.064Z,16.43
2019-02-21T20:57:48.319Z,16.73
2019-02-21T21:00:16.610Z,17.90
2019-02-21T21:02:44.992Z,18.00
2019-02-21T21:05:13.405Z,18.65
2019-02-21T21:07:41.768Z,18.37
2019-02-21T21:10:10.051Z,18.87
2019-02-21T21:12:38.450Z,18.42
2019-02-21T21:15:09.437Z,17.00
2019-02-21T21:17:35.779Z,17.13
2019-02-21T21:20:04.076Z,18.48
2019-02-21T21:22:33.127Z,18.27
2019-02-21T21:25:01.517Z,19.02
2019-02-21T21:27:29.806Z,18.75
2019-02-21T21:29:58.124Z,19.33
2019-02-21T21:32:27.164Z,18.92
2019-02-21T21:34:55.540Z,19.87
2019-02-21T21:37:23.911Z,18.92
2019-02-21T21:39:52.294Z,17.87
2019-02-21T21:42:20.705Z,17.15
2019-02-21T21:44:49.058Z,16.67
2019-02-21T21:47:17.464Z,17.37
2019-02-21T21:49:45.803Z,17.17
2019-02-21T21:52:14.183Z,17.77
2019-02-21T21:54:42.483Z,18.52
2019-02-21T21:57:10.783Z,17.23
2019-02-21T21:59:39.929Z,17.77
2019-02-21T22:02:08.219Z,17.85
2019-02-21T22:04:36.588Z,17.62
2019-02-21T22:07:04.979Z,18.00
2019-02-21T22:09:33.275Z,17.50
2019-02-21T22:12:01.656Z,17.75
2019-02-21T22:14:30.707Z,17.48
2019-02-21T22:16:59.099Z,16.83
2019-02-21T22:19:27.467Z,16.98
2019-02-21T22:21:55.742Z,15.50
2019-02-21T22:24:24.032Z,15.80
2019-02-21T22:26:53.965Z,16.23
2019-02-21T22:29:22.266Z,16.15
2019-02-21T22:31:51.314Z,16.20
2019-02-21T22:34:19.671Z,15.43
2019-02-21T22:36:48.051Z,16.00
2019-02-21T22:39:16.854Z,15.85
2019-02-21T22:41:44.815Z,16.65
2019-02-21T22:44:13.130Z,15.73
2019-02-21T22:46:42.295Z,16.55
2019-02-21T22:49:10.617Z,16.52
2019-02-21T22:51:38.887Z,17.13
2019-02-21T22:54:07.190Z,16.65
2019-02-21T22:56:35.487Z,16.00
2019-02-21T22:59:03.809Z,16.67
2019-02-21T23:01:32.862Z,16.73
2019-02-21T23:04:04.011Z,15.90
2019-02-21T23:06:42.997Z,16.08
2019-02-21T23:09:13.291Z,16.27
2019-02-21T23:11:40.443Z,16.50
2019-02-21T23:14:08.787Z,16.33
2019-02-21T23:16:37.079Z,16.85
2019-02-21T23:19:06.147Z,16.80
2019-02-21T23:21:34.521Z,17.12
2019-02-21T23:24:02.856Z,17.83
2019-02-21T23:26:31.155Z,17.40
2019-02-21T23:28:59.412Z,17.93
2019-02-21T23:31:27.727Z,18.17
2019-02-21T23:33:58.699Z,17.67
2019-02-21T23:36:27.756Z,18.23
2019-02-21T23:38:56.011Z,18.30
2019-02-21T23:41:24.303Z,18.05
2019-02-21T23:43:52.637Z,19.17
2019-02-21T23:46:21.813Z,19.00
2019-02-21T23:48:50.158Z,19.67
2019-02-21T23:51:18.541Z,19.50
2019-02-21T23:53:46.925Z,20.27
2019-02-21T23:56:16.712Z,19.27
2019-02-21T23:58:45.017Z,20.65
